createdAt,value
2019-05-21T00:00:56.512Z,28.77
2019-05-21T00:03:26.455Z,36.77
2019-05-21T00:05:55.927Z,34.70
2019-05-21T00:08:29.460Z,28.07
2019-05-21T00:11:06.146Z,27.93
2019-05-21T00:13:35.609Z,23.27
2019-05-21T00:16:05.166Z,24.63
2019-05-21T00:18:34.720Z,20.57
2019-05-21T00:21:04.101Z,21.03
2019-05-21T00:23:34.847Z,25.90
2019-05-21T00:26:07.258Z,23.07
2019-05-21T00:28:38.612Z,19.40
2019-05-21T00:31:44.030Z,20.87
2019-05-21T00:34:50.958Z,17.50
2019-05-21T00:37:57.629Z,21.80
2019-05-21T00:41:03.132Z,20.10
2019-05-21T00:44:01.234Z,19.50
2019-05-21T00:46:30.968Z,17.87
2019-05-21T00:49:01.645Z,18.83
2019-05-21T00:51:33.415Z,17.07
2019-05-21T00:54:03.901Z,22.57
2019-05-21T00:56:34.989Z,21.53
2019-05-21T00:59:06.194Z,28.73
2019-05-21T01:01:36.021Z,27.50
2019-05-21T01:04:16.300Z,29.53
2019-05-21T01:07:35.765Z,29.63
2019-05-21T01:10:04.961Z,35.43
2019-05-21T01:12:34.605Z,34.20
2019-05-21T01:15:04.092Z,39.40
2019-05-21T01:17:33.490Z,37.30
2019-05-21T01:20:04.493Z,35.23
2019-05-21T01:22:37.194Z,35.80
2019-05-21T01:25:06.648Z,32.97
2019-05-21T01:27:38.370Z,31.83
2019-05-21T01:30:09.884Z,27.80
2019-05-21T01:32:39.302Z,24.53
2019-05-21T01:35:17.141Z,26.87
2019-05-21T01:37:39.938Z,29.57
2019-05-21T01:40:09.474Z,35.90
2019-05-21T01:42:39.986Z,31.53
2019-05-21T01:45:09.624Z,41.47
2019-05-21T01:47:43.032Z,51.37
2019-05-21T01:50:19.574Z,53.67
2019-05-21T01:52:50.359Z,51.53
2019-05-21T01:55:21.874Z,43.83
2019-05-21T01:57:51.683Z,47.30
2019-05-21T02:00:21.640Z,61.30
2019-05-21T02:02:53.820Z,69.33
2019-05-21T02:05:32.516Z,76.03
2019-05-21T02:07:54.394Z,81.30
2019-05-21T02:10:23.739Z,76.07
2019-05-21T02:12:53.208Z,50.80
2019-05-21T02:15:24.099Z,43.30
2019-05-21T02:17:54.987Z,48.70
2019-05-21T02:20:30.121Z,41.03
2019-05-21T02:23:01.845Z,48.73
2019-05-21T02:25:34.555Z,54.17
2019-05-21T02:28:04.318Z,51.10
2019-05-21T02:30:35.900Z,44.30
2019-05-21T02:33:06.699Z,52.07
2019-05-21T02:35:52.768Z,39.80
2019-05-21T02:38:08.392Z,34.93
2019-05-21T02:40:37.826Z,39.80
2019-05-21T02:43:07.638Z,44.27
2019-05-21T02:45:38.244Z,42.20
2019-05-21T02:48:07.672Z,44.00
2019-05-21T02:50:38.463Z,37.20
2019-05-21T02:53:10.751Z,42.53
2019-05-21T02:55:43.000Z,33.27
2019-05-21T02:58:16.850Z,39.10
2019-05-21T03:01:20.638Z,37.50
2019-05-21T03:03:50.367Z,56.07
2019-05-21T03:06:21.066Z,63.83
2019-05-21T03:08:50.442Z,54.77
2019-05-21T03:11:23.599Z,55.83
2019-05-21T03:13:54.487Z,53.50
2019-05-21T03:16:24.512Z,56.53
2019-05-21T03:18:55.158Z,47.43
2019-05-21T03:21:28.364Z,47.23
2019-05-21T03:23:58.476Z,56.80
2019-05-21T03:26:47.799Z,63.87
2019-05-21T03:29:17.548Z,58.33
2019-05-21T03:31:47.019Z,62.67
2019-05-21T03:34:18.488Z,41.97
2019-05-21T03:36:51.066Z,41.43
2019-05-21T03:39:20.306Z,44.90
2019-05-21T03:41:53.920Z,46.00
2019-05-21T03:44:25.894Z,54.63
2019-05-21T03:46:55.819Z,55.43
2019-05-21T03:49:28.601Z,68.80
2019-05-21T03:51:58.550Z,57.33
2019-05-21T03:54:27.894Z,58.30
2019-05-21T03:56:57.316Z,41.77
2019-05-21T03:59:29.010Z,44.07
2019-05-21T04:01:59.837Z,50.43
2019-05-21T04:04:29.652Z,51.27
2019-05-21T04:07:00.854Z,52.07
2019-05-21T04:09:30.474Z,48.63
2019-05-21T04:12:00.741Z,42.43
2019-05-21T04:14:35.524Z,44.63
2019-05-21T04:17:26.949Z,39.50
2019-05-21T04:19:56.641Z,36.87
2019-05-21T04:22:30.089Z,43.73
2019-05-21T04:24:59.440Z,41.93
2019-05-21T04:27:28.781Z,37.17
2019-05-21T04:29:58.121Z,31.70
2019-05-21T04:32:27.585Z,38.87
2019-05-21T04:34:57.406Z,44.00
2019-05-21T04:37:27.221Z,36.67
2019-05-21T04:39:57.653Z,36.97
2019-05-21T04:42:27.005Z,34.87
2019-05-21T04:44:59.438Z,39.47
2019-05-21T04:47:30.483Z,53.77
2019-05-21T04:49:59.962Z,41.70
2019-05-21T04:52:29.333Z,30.37
2019-05-21T04:54:59.044Z,44.70
2019-05-21T04:57:28.501Z,39.80
2019-05-21T05:00:07.040Z,45.87
2019-05-21T05:02:36.733Z,39.53
2019-05-21T05:05:08.673Z,33.23
2019-05-21T05:07:38.734Z,37.10
2019-05-21T05:10:08.768Z,39.60
2019-05-21T05:12:40.202Z,39.10
2019-05-21T05:15:11.215Z,34.03
2019-05-21T05:17:40.670Z,52.03
2019-05-21T05:20:10.164Z,44.10
2019-05-21T05:22:39.559Z,46.27
2019-05-21T05:25:10.066Z,40.80
2019-05-21T05:27:39.640Z,40.47
2019-05-21T05:30:11.529Z,36.87
2019-05-21T05:32:40.884Z,44.00
2019-05-21T05:35:10.545Z,43.03
2019-05-21T05:37:46.363Z,44.67
2019-05-21T05:40:12.137Z,42.93
2019-05-21T05:42:41.732Z,44.67
2019-05-21T05:45:12.884Z,44.13
2019-05-21T05:47:42.927Z,42.70
2019-05-21T05:50:16.563Z,37.13
2019-05-21T05:52:47.821Z,37.30
2019-05-21T05:55:17.670Z,33.73
2019-05-21T05:57:47.336Z,30.57
2019-05-21T06:00:20.655Z,40.10
2019-05-21T06:02:50.378Z,25.93
2019-05-21T06:05:21.119Z,26.37
2019-05-21T06:07:59.246Z,30.50
2019-05-21T06:10:22.051Z,28.53
2019-05-21T06:12:53.172Z,28.17
2019-05-21T06:15:22.679Z,30.50
2019-05-21T06:17:52.402Z,28.73
2019-05-21T06:20:22.575Z,30.87
2019-05-21T06:22:52.537Z,24.57
2019-05-21T06:25:23.873Z,25.40
2019-05-21T06:27:53.166Z,32.90
2019-05-21T06:30:22.464Z,30.03
2019-05-21T06:32:51.848Z,30.50
2019-05-21T06:35:22.494Z,38.70
2019-05-21T06:37:51.873Z,44.83
2019-05-21T06:40:21.126Z,30.27
2019-05-21T06:42:50.580Z,32.43
2019-05-21T06:45:20.972Z,24.93
2019-05-21T06:47:50.244Z,30.73
2019-05-21T06:50:19.703Z,40.80
2019-05-21T06:52:48.962Z,27.20
2019-05-21T06:55:18.351Z,27.13
2019-05-21T06:57:48.588Z,26.80
2019-05-21T07:00:20.440Z,28.10
2019-05-21T07:02:52.002Z,30.17
2019-05-21T07:05:21.474Z,30.73
2019-05-21T07:07:50.780Z,23.20
2019-05-21T07:10:20.071Z,18.53
2019-05-21T07:12:49.360Z,28.37
2019-05-21T07:15:22.387Z,20.00
2019-05-21T07:17:54.429Z,22.60
2019-05-21T07:20:23.791Z,24.03
2019-05-21T07:22:52.993Z,22.53
2019-05-21T07:25:24.597Z,24.37
2019-05-21T07:27:57.883Z,19.57
2019-05-21T07:30:30.071Z,21.53
2019-05-21T07:32:59.304Z,21.87
2019-05-21T07:35:28.504Z,32.97
2019-05-21T07:37:59.857Z,26.60
2019-05-21T07:40:28.981Z,29.07
2019-05-21T07:42:58.460Z,22.33
2019-05-21T07:45:27.668Z,25.93
2019-05-21T07:48:08.153Z,26.27
2019-05-21T07:50:42.425Z,20.37
2019-05-21T07:53:12.983Z,12.03
2019-05-21T07:55:42.167Z,10.53
2019-05-21T07:58:11.408Z,10.90
2019-05-21T08:00:40.590Z,12.53
2019-05-21T08:03:09.874Z,13.53
2019-05-21T08:05:44.357Z,16.73
2019-05-21T08:08:15.872Z,15.17
2019-05-21T08:10:46.253Z,19.13
2019-05-21T08:13:15.515Z,15.60
2019-05-21T08:15:44.844Z,17.40
2019-05-21T08:18:16.213Z,11.67
2019-05-21T08:21:17.083Z,12.57
2019-05-21T08:23:46.801Z,16.13
2019-05-21T08:26:16.159Z,14.03
2019-05-21T08:28:45.488Z,15.87
2019-05-21T08:31:17.824Z,13.17
2019-05-21T08:33:47.161Z,16.93
2019-05-21T08:36:18.430Z,14.30
2019-05-21T08:38:47.747Z,14.70
2019-05-21T08:41:16.913Z,15.13
2019-05-21T08:43:46.140Z,11.47
2019-05-21T08:46:18.080Z,16.83
2019-05-21T08:48:47.382Z,14.10
2019-05-21T08:51:16.620Z,17.87
2019-05-21T08:53:49.055Z,17.47
2019-05-21T08:56:20.450Z,17.63
2019-05-21T08:58:51.144Z,11.13
2019-05-21T09:04:46.384Z,8.80
2019-05-21T09:07:13.912Z,10.43
2019-05-21T09:09:50.545Z,10.17
2019-05-21T09:12:23.173Z,20.03
2019-05-21T09:14:56.349Z,22.83
2019-05-21T09:17:25.855Z,15.40
2019-05-21T09:19:58.147Z,14.53
2019-05-21T09:22:29.010Z,13.87
2019-05-21T09:24:59.765Z,11.63
2019-05-21T09:27:29.308Z,16.07
2019-05-21T09:30:00.397Z,14.90
2019-05-21T09:32:29.676Z,12.97
2019-05-21T09:34:59.191Z,13.97
2019-05-21T09:37:28.467Z,13.43
2019-05-21T09:40:02.232Z,13.20
2019-05-21T09:42:32.073Z,13.93
2019-05-21T09:45:01.681Z,13.73
2019-05-21T09:47:30.954Z,11.00
2019-05-21T09:50:00.400Z,11.00
2019-05-21T09:52:29.802Z,12.73
2019-05-21T09:54:59.141Z,14.13
2019-05-21T09:57:36.214Z,14.30
2019-05-21T10:00:15.899Z,10.47
2019-05-21T10:02:45.522Z,14.40
2019-05-21T10:05:16.201Z,7.07
2019-05-21T10:07:50.438Z,11.60
2019-05-21T10:10:26.356Z,12.67
2019-05-21T10:12:55.433Z,11.70
2019-05-21T10:15:24.586Z,16.87
2019-05-21T10:17:54.896Z,17.73
2019-05-21T10:20:27.727Z,9.47
2019-05-21T10:22:57.033Z,9.90
2019-05-21T10:25:27.542Z,10.63
2019-05-21T10:27:57.700Z,7.30
2019-05-21T10:30:27.298Z,6.10
2019-05-21T10:32:56.485Z,7.97
2019-05-21T10:35:25.692Z,5.03
2019-05-21T10:37:55.601Z,4.00
2019-05-21T10:40:25.519Z,6.30
2019-05-21T10:42:55.780Z,7.03
2019-05-21T10:45:25.373Z,4.73
2019-05-21T10:47:54.694Z,6.37
2019-05-21T10:50:23.912Z,5.43
2019-05-21T10:52:53.118Z,7.50
2019-05-21T10:55:22.382Z,6.93
2019-05-21T10:57:51.899Z,6.47
2019-05-21T11:00:23.292Z,10.73
2019-05-21T11:03:17.355Z,6.50
2019-05-21T11:05:50.099Z,10.23
2019-05-21T11:08:23.836Z,11.83
2019-05-21T11:10:53.616Z,8.07
2019-05-21T11:13:22.765Z,6.67
2019-05-21T11:15:52.081Z,8.87
2019-05-21T11:18:21.275Z,5.37
2019-05-21T11:20:50.524Z,8.37
2019-05-21T11:23:20.943Z,7.40
2019-05-21T11:25:53.550Z,9.10
2019-05-21T11:28:23.088Z,9.70
2019-05-21T11:30:52.852Z,7.20
2019-05-21T11:33:24.170Z,6.00
2019-05-21T11:35:55.249Z,5.77
2019-05-21T11:38:39.119Z,6.27
2019-05-21T11:40:57.335Z,9.37
2019-05-21T11:43:26.641Z,11.60
2019-05-21T11:45:55.914Z,11.27
2019-05-21T11:48:27.962Z,6.33
2019-05-21T11:50:57.106Z,9.23
2019-05-21T11:53:31.412Z,10.13
2019-05-21T11:55:58.064Z,10.93
2019-05-21T11:58:27.496Z,15.17
2019-05-21T12:00:56.973Z,7.93
2019-05-21T12:03:27.694Z,10.70
2019-05-21T12:05:57.013Z,7.63
2019-05-21T12:08:27.744Z,10.97
2019-05-21T12:11:00.035Z,12.20
2019-05-21T12:13:29.261Z,13.60
2019-05-21T12:15:59.005Z,13.67
2019-05-21T12:18:29.127Z,9.70
2019-05-21T12:20:58.297Z,12.20
2019-05-21T12:23:30.705Z,10.27
2019-05-21T12:25:59.892Z,7.07
2019-05-21T12:28:30.385Z,6.20
2019-05-21T12:31:00.333Z,10.33
2019-05-21T12:33:29.638Z,9.60
2019-05-21T12:36:00.289Z,14.27
2019-05-21T12:38:29.959Z,13.87
2019-05-21T12:41:01.924Z,13.00
2019-05-21T12:43:31.185Z,14.50
2019-05-21T12:46:00.338Z,12.70
2019-05-21T12:48:29.874Z,11.73
2019-05-21T12:51:01.320Z,10.27
2019-05-21T12:53:30.539Z,9.57
2019-05-21T12:56:01.782Z,12.90
2019-05-21T12:58:31.017Z,9.47
2019-05-21T13:01:00.222Z,11.10
2019-05-21T13:03:30.614Z,11.17
2019-05-21T13:06:01.513Z,15.67
2019-05-21T13:08:30.768Z,17.37
2019-05-21T13:11:00.069Z,17.50
2019-05-21T13:13:29.610Z,12.77
2019-05-21T13:15:59.720Z,11.73
2019-05-21T13:18:30.802Z,15.43
2019-05-21T13:21:00.051Z,11.97
2019-05-21T13:23:29.430Z,15.20
2019-05-21T13:25:59.723Z,13.40
2019-05-21T13:28:28.937Z,12.20
2019-05-21T13:30:59.243Z,17.10
2019-05-21T13:33:28.508Z,19.20
2019-05-21T13:35:57.738Z,15.63
2019-05-21T13:38:26.978Z,16.83
2019-05-21T13:40:56.417Z,18.67
2019-05-21T13:43:25.683Z,15.47
2019-05-21T13:45:54.878Z,15.03
2019-05-21T13:48:26.079Z,16.47
2019-05-21T13:50:56.268Z,16.80
2019-05-21T13:53:27.379Z,14.83
2019-05-21T13:55:57.189Z,18.03
2019-05-21T13:58:26.836Z,18.50
2019-05-21T14:00:56.636Z,18.13
2019-05-21T14:03:25.836Z,20.17
2019-05-21T14:05:55.092Z,18.80
2019-05-21T14:08:24.303Z,19.10
2019-05-21T14:10:54.492Z,16.13
2019-05-21T14:13:24.852Z,16.23
2019-05-21T14:15:56.115Z,16.90
2019-05-21T14:18:26.896Z,18.47
2019-05-21T14:20:56.358Z,21.60
2019-05-21T14:23:26.632Z,17.60
2019-05-21T14:25:56.959Z,16.67
2019-05-21T14:28:34.428Z,15.40
2019-05-21T14:31:02.607Z,16.90
2019-05-21T14:33:35.836Z,18.53
2019-05-21T14:36:07.453Z,13.33
2019-05-21T14:38:38.509Z,13.13
2019-05-21T14:41:10.084Z,16.93
2019-05-21T14:43:41.556Z,13.20
2019-05-21T14:46:12.152Z,20.57
2019-05-21T14:48:44.518Z,16.77
2019-05-21T14:51:36.056Z,15.20
2019-05-21T14:54:25.351Z,16.50
2019-05-21T14:56:47.451Z,14.83
2019-05-21T14:59:16.770Z,14.37
2019-05-21T15:01:46.097Z,17.20
2019-05-21T15:04:15.417Z,13.77
2019-05-21T15:06:44.769Z,13.33
2019-05-21T15:09:14.354Z,13.53
2019-05-21T15:11:43.598Z,14.40
2019-05-21T15:14:15.633Z,14.23
2019-05-21T15:16:47.857Z,15.00
2019-05-21T15:19:17.408Z,14.50
2019-05-21T15:21:51.729Z,15.00
2019-05-21T15:24:22.144Z,17.87
2019-05-21T15:26:52.831Z,15.23
2019-05-21T15:29:22.016Z,16.60
2019-05-21T15:31:51.237Z,19.00
2019-05-21T15:34:20.521Z,18.10
2019-05-21T15:36:49.986Z,15.90
2019-05-21T15:39:19.364Z,12.27
2019-05-21T15:41:48.678Z,18.27
2019-05-21T15:44:19.312Z,14.90
2019-05-21T15:46:52.106Z,15.53
2019-05-21T15:49:35.080Z,16.20
2019-05-21T15:51:55.061Z,15.30
2019-05-21T15:54:24.143Z,18.30
2019-05-21T15:56:53.805Z,14.23
2019-05-21T15:59:23.495Z,16.53
2019-05-21T16:02:00.281Z,16.63
2019-05-21T16:04:29.521Z,15.17
2019-05-21T16:06:58.815Z,16.13
2019-05-21T16:09:31.468Z,19.60
2019-05-21T16:12:06.427Z,15.93
2019-05-21T16:14:36.123Z,15.67
2019-05-21T16:17:05.405Z,14.43
2019-05-21T16:19:40.732Z,14.83
2019-05-21T16:22:10.000Z,17.17
2019-05-21T16:24:39.172Z,12.53
2019-05-21T16:27:08.362Z,14.90
2019-05-21T16:29:39.502Z,13.53
2019-05-21T16:32:09.882Z,14.60
2019-05-21T16:34:42.246Z,17.70
2019-05-21T16:37:15.241Z,14.03
2019-05-21T16:40:06.430Z,14.10
2019-05-21T16:42:35.620Z,18.67
2019-05-21T16:45:06.567Z,16.87
2019-05-21T16:47:45.535Z,21.43
2019-05-21T16:50:14.547Z,19.77
2019-05-21T16:52:45.554Z,17.43
2019-05-21T16:55:15.394Z,19.10
2019-05-21T16:57:46.894Z,17.50
2019-05-21T17:00:18.361Z,18.93
2019-05-21T17:02:47.836Z,16.57
2019-05-21T17:05:17.029Z,16.33
2019-05-21T17:07:46.241Z,15.50
2019-05-21T17:10:16.954Z,16.73
2019-05-21T17:12:46.179Z,16.20
2019-05-21T17:15:15.353Z,18.60
2019-05-21T17:17:44.554Z,17.20
2019-05-21T17:20:14.471Z,20.27
2019-05-21T17:22:43.614Z,18.43
2019-05-21T17:25:14.891Z,14.70
2019-05-21T17:27:44.134Z,18.13
2019-05-21T17:30:13.869Z,20.50
2019-05-21T17:32:43.149Z,16.63
2019-05-21T17:35:12.609Z,20.40
2019-05-21T17:37:41.867Z,16.43
2019-05-21T17:40:13.466Z,13.53
2019-05-21T17:42:48.622Z,17.27
2019-05-21T17:45:18.188Z,22.30
2019-05-21T17:47:47.434Z,17.00
2019-05-21T17:50:21.530Z,15.03
2019-05-21T17:52:53.237Z,17.60
2019-05-21T17:55:25.806Z,14.57
2019-05-21T17:57:55.324Z,17.97
2019-05-21T18:00:53.261Z,17.07
2019-05-21T18:03:22.662Z,19.23
2019-05-21T18:05:52.554Z,19.93
2019-05-21T18:08:22.539Z,20.03
2019-05-21T18:10:53.752Z,27.93
2019-05-21T18:13:24.666Z,22.97
2019-05-21T18:15:57.017Z,26.70
2019-05-21T18:18:27.905Z,19.93
2019-05-21T18:21:00.707Z,20.77
2019-05-21T18:23:33.111Z,22.53
2019-05-21T18:26:03.489Z,22.93
2019-05-21T18:28:35.004Z,24.13
2019-05-21T18:31:07.030Z,21.23
2019-05-21T18:33:36.885Z,21.13
2019-05-21T18:36:06.049Z,20.43
2019-05-21T18:38:35.249Z,17.47
2019-05-21T18:41:05.353Z,18.73
2019-05-21T18:43:34.536Z,15.37
2019-05-21T18:46:03.722Z,17.00
2019-05-21T18:48:32.925Z,16.07
2019-05-21T18:51:02.171Z,19.07
2019-05-21T18:53:33.760Z,13.33
2019-05-21T18:56:03.381Z,16.23
2019-05-21T18:58:34.843Z,20.97
2019-05-21T19:01:04.685Z,16.60
2019-05-21T19:03:34.021Z,18.53
2019-05-21T19:06:03.722Z,22.73
2019-05-21T19:08:33.143Z,20.17
2019-05-21T19:11:08.226Z,23.27
2019-05-21T19:13:37.792Z,20.50
2019-05-21T19:16:15.056Z,24.00
2019-05-21T19:18:44.350Z,24.57
2019-05-21T19:21:16.994Z,22.17
2019-05-21T19:23:46.293Z,25.17
2019-05-21T19:26:16.213Z,22.47
2019-05-21T19:28:47.291Z,26.47
2019-05-21T19:31:17.851Z,22.13
2019-05-21T19:33:47.080Z,21.40
2019-05-21T19:36:17.638Z,21.93
2019-05-21T19:38:46.901Z,25.53
2019-05-21T19:41:16.345Z,20.43
2019-05-21T19:43:45.935Z,20.27
2019-05-21T19:46:15.217Z,25.63
2019-05-21T19:48:46.793Z,25.07
2019-05-21T19:51:17.361Z,28.43
2019-05-21T19:53:48.494Z,24.47
2019-05-21T19:56:17.971Z,23.03
2019-05-21T19:58:48.491Z,22.30
2019-05-21T20:01:19.670Z,23.17
2019-05-21T20:03:58.341Z,21.93
2019-05-21T20:06:29.372Z,22.43
2019-05-21T20:09:00.336Z,24.77
2019-05-21T20:11:30.128Z,22.07
2019-05-21T20:14:05.865Z,25.67
2019-05-21T20:16:36.823Z,24.67
2019-05-21T20:19:07.014Z,27.80
2019-05-21T20:21:38.350Z,25.37
2019-05-21T20:24:12.455Z,26.80
2019-05-21T20:26:43.377Z,27.33
2019-05-21T20:29:13.891Z,25.23
2019-05-21T20:31:44.801Z,30.10
2019-05-21T20:34:14.158Z,37.17
2019-05-21T20:36:47.008Z,29.53
2019-05-21T20:39:21.873Z,31.83
2019-05-21T20:41:51.767Z,31.17
2019-05-21T20:44:21.561Z,32.83
2019-05-21T20:46:55.041Z,35.17
2019-05-21T20:49:26.313Z,37.17
2019-05-21T20:51:58.723Z,34.77
2019-05-21T20:54:32.587Z,32.37
2019-05-21T20:57:08.334Z,35.37
2019-05-21T20:59:41.524Z,42.10
2019-05-21T21:02:24.364Z,35.50
2019-05-21T21:04:54.064Z,37.17
2019-05-21T21:07:25.114Z,34.63
2019-05-21T21:09:55.056Z,39.70
2019-05-21T21:12:27.681Z,37.47
2019-05-21T21:15:04.504Z,40.80
2019-05-21T21:17:33.811Z,32.77
2019-05-21T21:20:05.575Z,49.70
2019-05-21T21:22:35.502Z,48.90
2019-05-21T21:25:07.864Z,36.60
2019-05-21T21:27:37.502Z,32.83
2019-05-21T21:30:12.751Z,44.17
2019-05-21T21:32:42.764Z,32.63
2019-05-21T21:35:12.226Z,35.03
2019-05-21T21:37:41.430Z,37.00
2019-05-21T21:40:14.664Z,37.73
2019-05-21T21:42:45.191Z,36.53
2019-05-21T21:45:18.083Z,38.23
2019-05-21T21:47:50.964Z,35.10
2019-05-21T21:50:21.586Z,36.17
2019-05-21T21:52:54.322Z,34.37
2019-05-21T21:55:23.792Z,38.00
2019-05-21T21:57:53.514Z,40.00
2019-05-21T22:01:25.889Z,36.53
2019-05-21T22:04:06.478Z,40.87
2019-05-21T22:06:39.858Z,38.83
2019-05-21T22:09:14.241Z,39.17
2019-05-21T22:11:51.297Z,40.23
2019-05-21T22:14:21.904Z,33.90
2019-05-21T22:16:52.826Z,32.30
2019-05-21T22:19:24.298Z,38.03
2019-05-21T22:21:56.603Z,44.13
2019-05-21T22:24:28.811Z,34.63
2019-05-21T22:27:01.298Z,35.00
2019-05-21T22:29:33.648Z,33.57
2019-05-21T22:32:05.543Z,28.80
2019-05-21T22:34:36.794Z,31.90
2019-05-21T22:37:09.067Z,28.33
2019-05-21T22:39:41.848Z,32.73
2019-05-21T22:42:13.858Z,29.37
2019-05-21T22:44:45.918Z,31.57
2019-05-21T22:47:15.831Z,34.50
2019-05-21T22:49:46.308Z,32.13
2019-05-21T22:52:16.032Z,30.03
2019-05-21T22:54:47.266Z,29.50
2019-05-21T22:57:17.754Z,30.00
2019-05-21T22:59:53.452Z,29.00
2019-05-21T23:02:28.984Z,34.97
2019-05-21T23:05:01.711Z,37.77
2019-05-21T23:07:31.921Z,32.60
2019-05-21T23:10:07.193Z,29.67
2019-05-21T23:12:38.072Z,33.60
2019-05-21T23:15:24.359Z,30.17
2019-05-21T23:17:43.889Z,32.80
2019-05-21T23:20:14.115Z,33.23
2019-05-21T23:22:45.965Z,35.10
2019-05-21T23:25:22.379Z,32.73
2019-05-21T23:27:59.235Z,33.93
2019-05-21T23:30:29.043Z,37.50
2019-05-21T23:32:58.675Z,38.10
2019-05-21T23:35:28.579Z,36.27
2019-05-21T23:38:00.440Z,38.80
2019-05-21T23:40:38.908Z,39.03
2019-05-21T23:43:09.988Z,38.17
2019-05-21T23:45:43.944Z,37.80
2019-05-21T23:48:14.394Z,45.10
2019-05-21T23:50:44.941Z,37.70
2019-05-21T23:53:14.848Z,39.10
2019-05-21T23:55:45.369Z,35.70
2019-05-21T23:58:17.125Z,28.63
